Time;durP1;ratioP1;P1;durP2;ratioP2;P2;SDS_P1;SDS_P2;PMS_P1;PMS_P2;Temp;Humidity;BMP_temperature;BMP_pressure;BME280_temperature;BME280_humidity;BME280_pressure;Samples;Min_cycle;Max_cycle;Signal;HPM_P1;HPM_P2
2022/07/23 00:00:30;;;;;;;8.65;5.50;;;;;;;24.42;36.38;95194.63;4981635;28;20255;-66
2022/07/23 00:02:56;;;;;;;7.55;5.45;;;;;;;24.21;36.63;95190.66;4986501;28;20323;-66
2022/07/23 00:05:21;;;;;;;7.30;5.47;;;;;;;24.02;37.92;95191.81;4978443;28;20224;-65
2022/07/23 00:07:47;;;;;;;7.13;5.70;;;;;;;23.77;38.46;95196.31;4980513;28;20226;-65
2022/07/23 00:10:12;;;;;;;8.48;5.70;;;;;;;23.78;38.96;95189.06;4979844;28;20227;-65
2022/07/23 00:12:39;;;;;;;10.18;6.00;;;;;;;23.91;38.71;95188.06;4985682;28;20223;-66
2022/07/23 00:15:06;;;;;;;6.03;5.43;;;;;;;23.82;39.54;95194.78;4978711;28;20277;-67
2022/07/23 00:17:32;;;;;;;8.80;5.53;;;;;;;23.79;39.98;95201.47;4990776;28;20362;-66
2022/07/23 00:19:57;;;;;;;6.90;5.75;;;;;;;23.77;40.14;95201.69;4988687;28;20298;-66
2022/07/23 00:22:23;;;;;;;7.85;6.10;;;;;;;23.76;40.16;95202.75;4984510;28;20211;-66
2022/07/23 00:24:49;;;;;;;8.70;6.15;;;;;;;23.76;40.26;95208.13;4973973;28;20224;-65
2022/07/23 00:27:14;;;;;;;8.65;6.57;;;;;;;23.86;40.78;95195.97;4976554;28;20227;-65
2022/07/23 00:29:39;;;;;;;10.80;6.13;;;;;;;23.79;41.33;95198.78;4974804;28;20298;-66
2022/07/23 00:32:05;;;;;;;7.07;5.95;;;;;;;23.85;40.54;95207.78;4985249;28;20215;-66
2022/07/23 00:34:31;;;;;;;8.00;6.10;;;;;;;23.79;40.40;95212.22;4984074;28;20219;-65
2022/07/23 00:36:56;;;;;;;11.77;7.10;;;;;;;23.66;40.41;95202.44;4988517;28;20865;-66
2022/07/23 00:39:22;;;;;;;6.68;5.53;;;;;;;23.68;40.37;95211.09;4977867;28;20249;-65
2022/07/23 00:41:49;;;;;;;7.97;6.40;;;;;;;23.75;39.76;95206.47;4979014;28;20223;-65
2022/07/23 00:44:32;;;;;;;6.05;5.38;;;;;;;23.65;39.43;95203.47;4979142;28;20224;-66
2022/07/23 00:46:58;;;;;;;6.40;5.22;;;;;;;23.63;38.77;95202.06;4982063;28;20203;-67
2022/07/23 00:49:26;;;;;;;8.45;5.43;;;;;;;23.62;38.38;95211.97;4980450;28;20211;-66
2022/07/23 00:51:52;;;;;;;5.88;5.20;;;;;;;23.63;38.15;95208.28;4987459;28;20632;-66
2022/07/23 00:54:19;;;;;;;7.25;5.05;;;;;;;23.70;38.15;95200.91;4977217;28;20224;-65
2022/07/23 00:56:46;;;;;;;8.60;5.47;;;;;;;23.59;38.64;95207.06;4976258;28;20235;-65
2022/07/23 00:59:12;;;;;;;7.00;5.20;;;;;;;23.56;38.55;95208.34;4983083;28;20224;-64
2022/07/23 01:01:37;;;;;;;9.43;5.72;;;;;;;23.61;38.49;95210.34;4983118;28;20204;-65
2022/07/23 01:04:03;;;;;;;7.15;5.13;;;;;;;23.42;39.10;95203.41;4981566;28;20224;-65
2022/07/23 01:06:34;;;;;;;6.82;5.25;;;;;;;23.32;39.21;95202.06;4962971;28;20235;-64
2022/07/23 01:09:00;;;;;;;8.63;5.72;;;;;;;23.18;39.82;95194.44;4977704;28;20220;-65
2022/07/23 01:11:25;;;;;;;5.68;5.18;;;;;;;23.22;39.76;95193.75;4978180;28;20219;-65
2022/07/23 01:13:51;;;;;;;6.80;5.03;;;;;;;23.19;39.70;95194.19;4981628;28;20200;-65
2022/07/23 01:16:16;;;;;;;7.85;5.30;;;;;;;23.01;40.30;95194.22;4975361;28;20248;-65
2022/07/23 01:18:42;;;;;;;6.25;5.38;;;;;;;22.96;40.44;95194.03;4979530;28;20362;-65
2022/07/23 01:21:12;;;;;;;7.72;5.18;;;;;;;22.92;40.57;95196.34;4977572;28;20851;-65
2022/07/23 01:23:38;;;;;;;8.65;5.30;;;;;;;22.99;40.48;95188.25;4974107;28;20224;-65
2022/07/23 01:26:03;;;;;;;7.65;5.50;;;;;;;23.07;40.32;95187.97;4988424;28;20206;-67
2022/07/23 01:28:29;;;;;;;5.43;4.90;;;;;;;23.07;40.02;95191.47;4989862;28;20207;-66
2022/07/23 01:30:54;;;;;;;8.02;5.85;;;;;;;23.06;40.44;95195.19;4983965;28;20231;-67
2022/07/23 01:33:20;;;;;;;5.53;5.03;;;;;;;22.93;40.72;95194.50;4976517;28;20235;-66
2022/07/23 01:35:45;;;;;;;7.70;5.38;;;;;;;22.77;41.26;95188.69;4976659;28;20216;-66
2022/07/23 01:38:10;;;;;;;6.00;4.70;;;;;;;22.75;41.04;95196.16;4975473;28;20204;-66
2022/07/23 01:40:36;;;;;;;5.32;4.82;;;;;;;22.72;41.07;95187.72;4983126;28;20212;-65
2022/07/23 01:43:01;;;;;;;5.90;5.07;;;;;;;22.81;41.20;95197.94;4990454;28;20235;-65
2022/07/23 01:45:27;;;;;;;6.75;5.35;;;;;;;22.72;41.19;95183.19;4990213;28;20231;-66
2022/07/23 01:47:52;;;;;;;12.85;5.68;;;;;;;22.68;41.17;95187.34;4984274;28;20228;-65
2022/07/23 01:50:18;;;;;;;6.47;5.88;;;;;;;22.65;41.26;95195.84;4976724;28;20253;-65
2022/07/23 01:52:43;;;;;;;10.63;5.43;;;;;;;22.66;41.42;95192.09;4976250;28;20207;-65
2022/07/23 01:55:09;;;;;;;7.32;5.68;;;;;;;22.62;41.52;95190.94;4978503;28;20293;-65
2022/07/23 01:57:34;;;;;;;8.63;6.00;;;;;;;22.57;41.61;95191.59;4978298;28;20235;-65
2022/07/23 02:00:00;;;;;;;8.20;5.68;;;;;;;22.58;41.48;95190.53;4973112;28;20223;-65
2022/07/23 02:02:25;;;;;;;6.75;5.57;;;;;;;22.63;41.31;95189.88;4982808;28;20220;-64
2022/07/23 02:04:50;;;;;;;5.72;5.03;;;;;;;22.52;41.42;95196.78;4978541;28;20215;-64
2022/07/23 02:07:17;;;;;;;7.70;5.85;;;;;;;22.49;41.31;95194.56;4977820;28;20238;-65
2022/07/23 02:09:42;;;;;;;6.07;5.40;;;;;;;22.44;41.86;95192.53;4977838;28;20211;-66
2022/07/23 02:12:08;;;;;;;6.97;5.43;;;;;;;22.27;42.16;95204.88;4978224;28;20228;-66
2022/07/23 02:14:33;;;;;;;7.80;5.38;;;;;;;22.27;42.36;95194.16;4980123;28;20243;-66
2022/07/23 02:16:59;;;;;;;7.35;5.78;;;;;;;22.28;42.16;95198.47;4978954;28;20675;-66
2022/07/23 02:19:25;;;;;;;7.93;5.95;;;;;;;22.23;42.51;95201.78;4988156;28;20202;-67
2022/07/23 02:21:50;;;;;;;9.15;5.68;;;;;;;22.30;42.47;95199.06;4984168;28;20234;-66
2022/07/23 02:24:16;;;;;;;6.90;5.57;;;;;;;22.19;42.95;95200.59;4985698;28;20277;-66
2022/07/23 02:26:41;;;;;;;6.50;5.50;;;;;;;22.25;43.08;95198.91;4983490;28;20227;-66
2022/07/23 02:29:07;;;;;;;6.82;6.13;;;;;;;22.07;44.11;95198.81;4979262;28;20207;-66
2022/07/23 02:31:33;;;;;;;9.48;5.55;;;;;;;22.16;44.00;95202.84;4976173;28;20254;-66
2022/07/23 02:33:58;;;;;;;8.07;5.32;;;;;;;22.29;43.69;95202.78;4976841;28;20266;-66
2022/07/23 02:36:24;;;;;;;7.28;5.63;;;;;;;22.17;43.04;95204.50;4990369;28;20229;-65
2022/07/23 02:38:49;;;;;;;8.63;5.97;;;;;;;22.19;43.09;95195.25;4984688;28;20227;-65
2022/07/23 02:41:14;;;;;;;9.68;5.88;;;;;;;22.17;44.10;95197.28;4984155;28;20238;-65
2022/07/23 02:43:40;;;;;;;8.77;5.88;;;;;;;22.27;43.85;95202.19;4977569;28;20206;-65
2022/07/23 02:46:05;;;;;;;7.45;5.63;;;;;;;22.27;42.71;95207.56;4974417;28;20264;-66
2022/07/23 02:48:31;;;;;;;7.07;5.95;;;;;;;22.10;43.44;95201.88;4976585;28;20223;-66
2022/07/23 02:50:56;;;;;;;6.93;5.95;;;;;;;22.11;43.80;95210.75;4978034;28;20585;-66
2022/07/23 02:53:25;;;;;;;9.02;6.10;;;;;;;21.97;43.31;95213.53;4982616;28;20234;-66
2022/07/23 02:55:51;;;;;;;7.22;5.38;;;;;;;21.94;43.07;95213.13;4983079;28;20254;-65
2022/07/23 02:58:17;;;;;;;9.95;5.97;;;;;;;21.85;42.81;95211.78;4979697;28;20260;-64
2022/07/23 03:00:42;;;;;;;9.20;6.35;;;;;;;21.79;42.21;95210.78;4980531;28;20231;-65
2022/07/23 03:03:08;;;;;;;9.63;6.03;;;;;;;21.81;42.29;95216.72;4976607;28;20278;-65
2022/07/23 03:05:34;;;;;;;7.63;5.40;;;;;;;21.83;42.32;95224.53;4978107;28;20223;-64
2022/07/23 03:07:59;;;;;;;7.13;6.15;;;;;;;21.90;42.14;95220.78;4976555;28;20200;-64
2022/07/23 03:10:25;;;;;;;9.52;6.28;;;;;;;21.82;42.51;95223.72;4977959;28;20220;-65
2022/07/23 03:12:50;;;;;;;9.13;6.10;;;;;;;21.80;42.12;95217.78;4986160;28;20239;-65
2022/07/23 03:15:16;;;;;;;10.13;6.40;;;;;;;21.86;42.21;95229.47;4983827;28;20263;-66
2022/07/23 03:17:41;;;;;;;8.07;5.55;;;;;;;21.77;42.53;95224.38;4973923;28;20235;-64
2022/07/23 03:20:07;;;;;;;8.27;6.45;;;;;;;21.73;43.92;95228.53;4977534;28;20232;-65
2022/07/23 03:22:33;;;;;;;11.68;6.03;;;;;;;21.75;43.50;95231.78;4976459;28;20527;-65
2022/07/23 03:24:58;;;;;;;7.85;6.82;;;;;;;21.58;45.83;95231.50;4973988;28;20231;-65
2022/07/23 03:27:26;;;;;;;11.95;6.30;;;;;;;21.32;47.00;95232.41;4980825;28;20228;-64
2022/07/23 03:29:53;;;;;;;8.43;5.97;;;;;;;21.59;46.61;95240.34;4985056;28;20571;-65
2022/07/23 03:32:19;;;;;;;9.98;6.75;;;;;;;21.54;46.92;95245.50;4985328;28;20231;-65
2022/07/23 03:34:45;;;;;;;7.82;6.20;;;;;;;21.54;46.67;95249.03;4982159;28;20204;-65
2022/07/23 03:37:11;;;;;;;9.90;6.63;;;;;;;21.39;47.51;95231.63;4979653;28;20239;-64
2022/07/23 03:39:36;;;;;;;7.68;6.80;;;;;;;20.65;50.09;95239.03;4986321;28;20242;-65
2022/07/23 03:42:02;;;;;;;7.95;6.60;;;;;;;21.15;48.50;95237.44;4981346;28;20300;-64
2022/07/23 03:44:27;;;;;;;7.65;6.82;;;;;;;21.40;47.89;95236.72;4980748;28;20215;-65
2022/07/23 03:46:53;;;;;;;8.32;7.13;;;;;;;21.55;47.24;95245.31;4985836;28;20196;-65
2022/07/23 03:49:18;;;;;;;10.93;7.85;;;;;;;21.56;47.29;95241.59;4990045;28;20220;-65
2022/07/23 03:51:44;;;;;;;9.32;7.85;;;;;;;21.67;46.94;95241.94;4981904;28;20240;-63
2022/07/23 03:54:09;;;;;;;12.13;7.80;;;;;;;21.72;47.00;95244.78;4986457;28;20293;-64
2022/07/23 03:56:35;;;;;;;9.55;7.85;;;;;;;21.78;46.97;95252.78;4977727;28;20224;-65
2022/07/23 03:59:00;;;;;;;9.93;7.57;;;;;;;21.77;46.98;95253.00;4977927;28;20680;-64
2022/07/23 04:01:26;;;;;;;10.90;8.70;;;;;;;21.75;47.03;95245.16;4981093;28;20219;-66
2022/07/23 04:03:51;;;;;;;11.35;9.07;;;;;;;21.73;46.75;95246.41;4986800;28;20220;-65
2022/07/23 04:06:17;;;;;;;10.27;8.00;;;;;;;21.76;46.93;95251.38;4986123;28;20224;-66
2022/07/23 04:08:43;;;;;;;9.63;7.90;;;;;;;21.72;47.26;95242.94;4979902;28;20247;-65
2022/07/23 04:11:08;;;;;;;10.55;8.73;;;;;;;21.63;47.41;95240.75;4977798;28;20604;-66
2022/07/23 04:13:33;;;;;;;9.50;8.32;;;;;;;21.58;47.63;95242.19;4982429;28;20218;-64
2022/07/23 04:15:59;;;;;;;13.32;8.52;;;;;;;21.61;47.53;95248.97;4980126;28;20239;-65
2022/07/23 04:18:24;;;;;;;9.52;7.90;;;;;;;21.09;49.19;95250.81;4976194;28;20219;-65
2022/07/23 04:20:53;;;;;;;9.55;8.50;;;;;;;21.25;49.09;95246.84;4987295;28;20329;-64
2022/07/23 04:23:19;;;;;;;9.35;8.48;;;;;;;20.55;51.04;95250.13;4974952;28;20295;-65
2022/07/23 04:25:44;;;;;;;11.38;8.13;;;;;;;20.99;50.11;95248.63;4977707;28;20373;-64
2022/07/23 04:28:09;;;;;;;8.55;7.57;;;;;;;20.95;50.67;95255.41;4976272;28;20284;-64
2022/07/23 04:30:35;;;;;;;9.38;7.85;;;;;;;21.04;50.58;95264.84;4981482;28;20239;-65
2022/07/23 04:33:01;;;;;;;12.05;8.20;;;;;;;21.57;48.83;95261.97;4977462;28;20224;-65
2022/07/23 04:35:26;;;;;;;8.90;8.10;;;;;;;21.73;48.36;95257.97;4986108;28;20219;-66
2022/07/23 04:37:52;;;;;;;9.63;8.32;;;;;;;21.87;48.16;95257.88;4983142;28;20298;-65
2022/07/23 04:40:18;;;;;;;11.52;8.60;;;;;;;22.03;47.50;95258.19;4989019;28;20222;-66
2022/07/23 04:42:43;;;;;;;9.27;8.10;;;;;;;22.10;47.39;95271.50;4963349;28;20223;-66
2022/07/23 04:45:09;;;;;;;11.23;7.97;;;;;;;22.15;47.19;95266.31;4978321;28;20228;-65
2022/07/23 04:47:34;;;;;;;9.10;7.93;;;;;;;22.19;46.66;95258.72;4985650;28;20223;-66
2022/07/23 04:50:00;;;;;;;10.70;8.27;;;;;;;22.17;46.72;95268.78;4980671;28;20211;-66
2022/07/23 04:52:25;;;;;;;9.95;8.27;;;;;;;22.25;46.38;95268.56;4980451;28;20206;-67
2022/07/23 04:54:51;;;;;;;8.05;7.20;;;;;;;22.36;45.12;95267.84;4980664;28;20223;-66
2022/07/23 04:57:16;;;;;;;9.85;7.55;;;;;;;22.48;44.60;95277.84;4986176;28;20234;-66
2022/07/23 04:59:42;;;;;;;14.13;8.48;;;;;;;22.40;46.38;95274.41;4986626;28;20292;-65
2022/07/23 05:02:07;;;;;;;8.35;7.47;;;;;;;22.44;45.60;95275.59;4981928;28;20204;-65
2022/07/23 05:04:33;;;;;;;10.90;7.68;;;;;;;22.49;45.30;95271.44;4980846;28;20227;-66
2022/07/23 05:06:59;;;;;;;11.80;8.63;;;;;;;22.43;45.57;95268.59;4981116;28;20224;-65
2022/07/23 05:09:24;;;;;;;9.68;8.68;;;;;;;22.55;45.15;95270.56;4978514;28;20452;-66
2022/07/23 05:11:50;;;;;;;9.88;8.10;;;;;;;22.57;45.36;95276.53;4980547;28;20223;-65
2022/07/23 05:14:15;;;;;;;9.63;8.00;;;;;;;22.63;45.38;95272.97;4988464;28;20211;-66
2022/07/23 05:16:41;;;;;;;12.07;8.88;;;;;;;22.67;45.15;95269.63;4982402;28;20212;-65
2022/07/23 05:19:06;;;;;;;9.20;7.47;;;;;;;22.71;44.53;95272.66;4983031;28;20294;-65
2022/07/23 05:21:33;;;;;;;10.00;8.68;;;;;;;22.72;45.06;95281.53;4979093;28;20231;-65
2022/07/23 05:23:58;;;;;;;12.60;8.70;;;;;;;22.74;44.94;95280.28;4979429;28;20369;-66
2022/07/23 05:26:24;;;;;;;9.82;8.13;;;;;;;22.71;45.31;95275.34;4975471;28;20547;-65
2022/07/23 05:28:50;;;;;;;9.65;8.75;;;;;;;22.75;45.74;95283.75;4981900;28;20359;-66
2022/07/23 05:31:15;;;;;;;11.93;8.32;;;;;;;22.87;45.03;95285.50;4982758;28;20215;-66
2022/07/23 05:33:41;;;;;;;9.88;8.52;;;;;;;22.95;44.41;95283.59;4980059;28;20358;-66
2022/07/23 05:36:06;;;;;;;10.95;8.10;;;;;;;22.93;44.50;95282.97;4974854;28;20234;-66
2022/07/23 05:38:32;;;;;;;10.35;8.90;;;;;;;23.04;44.44;95282.25;4975861;28;20235;-66
2022/07/23 05:40:58;;;;;;;11.35;8.25;;;;;;;23.09;44.02;95282.41;4977624;28;20212;-65
2022/07/23 05:43:23;;;;;;;12.35;8.02;;;;;;;23.08;43.17;95278.91;4981462;28;20214;-66
2022/07/23 05:45:49;;;;;;;12.10;8.73;;;;;;;23.17;42.97;95281.31;4975485;28;20300;-65
2022/07/23 05:48:14;;;;;;;8.88;7.60;;;;;;;23.24;42.93;95274.81;4974281;28;20228;-66
2022/07/23 05:50:40;;;;;;;10.20;8.30;;;;;;;23.23;42.86;95281.25;4986806;28;20218;-67
2022/07/23 05:53:05;;;;;;;9.50;7.93;;;;;;;23.37;42.45;95281.09;4980974;28;20211;-66
2022/07/23 05:55:31;;;;;;;9.43;7.78;;;;;;;23.41;42.22;95276.88;4977439;28;20235;-65
2022/07/23 05:57:57;;;;;;;10.20;7.72;;;;;;;23.51;41.69;95274.50;4977679;28;20332;-65
2022/07/23 06:00:23;;;;;;;8.40;7.60;;;;;;;23.51;41.99;95277.19;4980838;28;20228;-66
2022/07/23 06:02:51;;;;;;;11.20;8.15;;;;;;;23.59;42.18;95274.19;4982086;28;20234;-65
2022/07/23 06:05:17;;;;;;;8.60;7.25;;;;;;;23.65;42.97;95275.13;4972833;28;20232;-67
2022/07/23 06:07:43;;;;;;;9.20;7.70;;;;;;;23.76;42.13;95277.91;4975994;28;20215;-66
2022/07/23 06:10:08;;;;;;;9.57;7.63;;;;;;;23.80;41.73;95272.09;4973142;28;20216;-66
2022/07/23 06:12:35;;;;;;;11.55;7.70;;;;;;;23.84;41.56;95265.19;4984733;28;20219;-66
2022/07/23 06:15:00;;;;;;;8.48;7.15;;;;;;;23.90;41.37;95265.13;4977436;28;20243;-66
2022/07/23 06:17:26;;;;;;;12.23;7.35;;;;;;;23.94;41.48;95258.22;4976947;28;20249;-65
2022/07/23 06:19:52;;;;;;;9.60;7.55;;;;;;;24.01;41.17;95266.19;4972732;28;20227;-66
2022/07/23 06:22:17;;;;;;;11.98;7.25;;;;;;;24.09;40.47;95271.25;4988948;28;20224;-66
2022/07/23 06:24:43;;;;;;;9.15;6.63;;;;;;;24.10;41.15;95272.88;4987237;28;20226;-65
2022/07/23 06:27:08;;;;;;;15.00;7.85;;;;;;;24.25;40.17;95264.38;4988804;28;20238;-67
2022/07/23 06:29:33;;;;;;;13.82;6.85;;;;;;;24.23;39.79;95261.09;4978790;28;20231;-66
2022/07/23 06:31:59;;;;;;;7.90;7.13;;;;;;;24.24;40.32;95257.34;4981502;28;20227;-66
2022/07/23 06:34:24;;;;;;;8.40;6.57;;;;;;;24.27;39.11;95261.44;4980368;28;20210;-65
2022/07/23 06:36:50;;;;;;;9.98;6.50;;;;;;;24.32;38.84;95258.91;4978974;28;20228;-65
2022/07/23 06:39:15;;;;;;;9.15;6.25;;;;;;;24.37;38.25;95259.81;4977411;28;20227;-65
2022/07/23 06:41:41;;;;;;;7.72;6.40;;;;;;;24.47;38.63;95261.97;4986803;28;20227;-66
2022/07/23 06:44:07;;;;;;;8.20;6.65;;;;;;;24.45;40.15;95269.47;4985160;28;20271;-65
2022/07/23 06:46:33;;;;;;;12.23;7.88;;;;;;;24.48;39.65;95263.59;4974634;28;20259;-65
2022/07/23 06:48:59;;;;;;;11.98;7.15;;;;;;;24.54;37.24;95265.38;4979060;28;20219;-66
2022/07/23 06:51:24;;;;;;;8.60;7.07;;;;;;;24.63;36.90;95263.16;4980676;28;20207;-65
2022/07/23 06:53:50;;;;;;;14.35;6.63;;;;;;;24.68;36.88;95260.59;4978424;28;20235;-65
2022/07/23 06:56:15;;;;;;;10.25;7.22;;;;;;;24.68;38.16;95257.91;4976146;28;20230;-64
2022/07/23 06:58:40;;;;;;;7.57;6.78;;;;;;;24.59;38.73;95259.28;4974217;28;20208;-66
2022/07/23 07:01:06;;;;;;;8.32;7.45;;;;;;;24.77;37.52;95258.38;4979104;28;20231;-65
2022/07/23 07:03:31;;;;;;;7.85;7.10;;;;;;;24.84;37.20;95254.50;4978103;28;20239;-65
2022/07/23 07:05:57;;;;;;;8.68;7.20;;;;;;;25.00;37.09;95255.66;4983941;28;20317;-64
2022/07/23 07:08:23;;;;;;;10.10;7.57;;;;;;;25.00;37.93;95249.47;4983951;28;20322;-65
2022/07/23 07:10:49;;;;;;;8.30;7.45;;;;;;;24.95;37.54;95247.47;4987362;28;20196;-66
2022/07/23 07:13:14;;;;;;;8.98;7.28;;;;;;;25.00;37.20;95246.78;4982866;28;20230;-66
2022/07/23 07:15:39;;;;;;;7.78;7.07;;;;;;;25.13;36.61;95248.38;5000531;28;20232;-66
2022/07/23 07:18:05;;;;;;;8.77;7.13;;;;;;;25.11;37.21;95248.63;4996285;28;20228;-66
2022/07/23 07:20:30;;;;;;;8.80;7.53;;;;;;;25.24;37.18;95242.19;4989505;28;20223;-66
2022/07/23 07:22:56;;;;;;;8.10;7.07;;;;;;;25.19;36.55;95237.53;4980935;28;20212;-65
2022/07/23 07:25:21;;;;;;;10.48;6.80;;;;;;;25.33;36.84;95240.75;4982289;28;20232;-66
2022/07/23 07:27:47;;;;;;;8.23;6.43;;;;;;;25.50;36.29;95240.81;4980410;28;20220;-66
2022/07/23 07:30:13;;;;;;;7.15;5.90;;;;;;;25.55;36.28;95235.53;4982535;28;20220;-66
2022/07/23 07:32:38;;;;;;;8.93;6.97;;;;;;;25.59;36.75;95230.50;4983288;28;20223;-65
2022/07/23 07:35:06;;;;;;;12.88;7.18;;;;;;;25.61;36.05;95228.34;4989737;28;20206;-65
2022/07/23 07:37:31;;;;;;;10.55;7.28;;;;;;;25.80;35.51;95232.50;4988731;28;20223;-66
2022/07/23 07:39:57;;;;;;;10.00;7.20;;;;;;;25.81;35.48;95234.13;4979159;28;20282;-66
2022/07/23 07:42:22;;;;;;;8.90;7.07;;;;;;;25.90;35.49;95231.88;4984460;28;20283;-66
2022/07/23 07:44:47;;;;;;;9.20;7.72;;;;;;;25.91;35.99;95226.28;4978679;28;20231;-65
2022/07/23 07:47:15;;;;;;;13.07;7.18;;;;;;;25.78;36.30;95225.72;4978112;28;20211;-66
2022/07/23 07:49:41;;;;;;;9.82;7.13;;;;;;;25.90;36.31;95232.72;4980797;28;20777;-66
2022/07/23 07:52:07;;;;;;;9.48;7.45;;;;;;;26.03;35.94;95228.06;4982337;28;20223;-66
2022/07/23 07:54:32;;;;;;;10.27;7.80;;;;;;;26.08;35.55;95231.66;4986375;28;20239;-66
2022/07/23 07:56:58;;;;;;;8.80;7.53;;;;;;;26.24;35.66;95230.03;4978534;28;20281;-66
2022/07/23 07:59:23;;;;;;;7.95;7.15;;;;;;;26.24;36.63;95221.97;4986028;28;20227;-66
2022/07/23 08:01:49;;;;;;;10.68;7.82;;;;;;;26.29;38.84;95232.00;4981996;28;20216;-65
2022/07/23 08:04:14;;;;;;;9.15;7.13;;;;;;;26.36;37.78;95227.28;4977101;28;20215;-65
2022/07/23 08:06:40;;;;;;;8.77;7.85;;;;;;;26.33;36.46;95231.28;4979932;28;20219;-65
2022/07/23 08:09:05;;;;;;;12.20;7.50;;;;;;;26.48;35.83;95221.78;4979587;28;20227;-66
2022/07/23 08:11:30;;;;;;;8.55;7.63;;;;;;;26.57;36.08;95215.78;4980369;28;20227;-66
2022/07/23 08:13:56;;;;;;;8.30;7.47;;;;;;;26.60;34.62;95220.69;4986538;28;20282;-65
2022/07/23 08:16:21;;;;;;;9.70;7.95;;;;;;;26.66;35.09;95218.06;4976586;28;20244;-66
2022/07/23 08:18:47;;;;;;;9.55;7.20;;;;;;;26.78;35.05;95216.06;4981922;28;20228;-66
2022/07/23 08:21:12;;;;;;;9.65;7.75;;;;;;;26.84;34.91;95217.78;4982917;28;20289;-66
2022/07/23 08:23:38;;;;;;;8.55;7.15;;;;;;;26.86;35.53;95217.50;4977486;28;20227;-65
2022/07/23 08:26:03;;;;;;;12.38;7.50;;;;;;;26.94;37.00;95217.91;4984213;28;20558;-66
2022/07/23 08:28:32;;;;;;;9.75;7.38;;;;;;;27.01;37.47;95215.84;4985559;28;20212;-66
2022/07/23 08:30:58;;;;;;;7.97;7.15;;;;;;;27.12;37.42;95216.78;4985835;28;20278;-66
2022/07/23 08:33:24;;;;;;;10.13;7.03;;;;;;;27.16;37.17;95212.53;4976110;28;20228;-65
2022/07/23 08:35:52;;;;;;;13.32;7.45;;;;;;;27.19;37.15;95209.34;4981254;28;20258;-66
2022/07/23 08:38:19;;;;;;;8.82;7.22;;;;;;;27.34;35.34;95203.31;4980105;28;20227;-66
2022/07/23 08:40:57;;;;;;;11.13;6.68;;;;;;;27.44;35.22;95210.72;4977234;28;20224;-65
2022/07/23 08:43:31;;;;;;;14.93;7.68;;;;;;;27.47;34.95;95204.81;4982954;28;20230;-65
2022/07/23 08:45:58;;;;;;;8.88;7.32;;;;;;;27.46;36.24;95198.59;4980536;28;20256;-65
2022/07/23 08:48:27;;;;;;;10.75;7.35;;;;;;;27.62;33.64;95202.28;4974551;28;20255;-66
2022/07/23 08:50:56;;;;;;;11.77;7.18;;;;;;;27.63;32.94;95194.97;4976453;28;20232;-66
2022/07/23 08:53:23;;;;;;;9.70;7.20;;;;;;;27.73;32.57;95202.38;4978610;28;20227;-65
2022/07/23 08:55:51;;;;;;;11.55;7.63;;;;;;;27.76;32.44;95199.19;4981356;28;20207;-65
2022/07/23 08:58:17;;;;;;;7.93;6.93;;;;;;;27.78;33.56;95202.44;4975851;28;20240;-65
2022/07/23 09:00:43;;;;;;;9.43;7.07;;;;;;;27.86;32.98;95196.59;4983019;28;20232;-65
2022/07/23 09:03:17;;;;;;;24.42;7.47;;;;;;;27.83;33.38;95189.81;4983298;28;20246;-66
2022/07/23 09:05:43;;;;;;;9.60;7.60;;;;;;;27.89;33.87;95191.50;4981607;28;20257;-63
2022/07/23 09:08:10;;;;;;;11.43;6.38;;;;;;;28.01;34.14;95193.22;4974875;28;20203;-64
2022/07/23 09:10:47;;;;;;;9.00;7.18;;;;;;;28.10;33.25;95191.69;4983168;28;20212;-64
2022/07/23 09:13:32;;;;;;;11.27;7.78;;;;;;;28.24;33.00;95192.88;4985310;28;20243;-64
2022/07/23 09:16:03;;;;;;;9.00;7.22;;;;;;;28.32;34.28;95186.97;4978694;28;20239;-65
2022/07/23 09:18:35;;;;;;;8.05;7.25;;;;;;;28.32;33.28;95191.59;4980938;28;20223;-65
2022/07/23 09:21:10;;;;;;;11.25;7.68;;;;;;;28.35;33.79;95186.47;4979494;28;20239;-65
2022/07/23 09:23:46;;;;;;;11.60;10.43;;;;;;;28.41;33.16;95189.19;4982769;28;20226;-65
2022/07/23 09:26:19;;;;;;;9.32;7.95;;;;;;;28.57;32.26;95188.25;4976537;28;20246;-66
2022/07/23 09:29:29;;;;;;;18.02;15.20;;;;;;;28.69;34.01;95194.31;5074284;27;20554;-65
2022/07/23 09:32:00;;;;;;;12.63;7.85;;;;;;;28.83;30.65;95183.81;5068662;28;20228;-66
2022/07/23 09:34:35;;;;;;;10.63;6.78;;;;;;;28.95;30.60;95186.31;5039350;28;20796;-66
2022/07/23 09:37:18;;;;;;;11.23;6.97;;;;;;;29.06;29.61;95176.38;5040179;28;20225;-66
2022/07/23 09:39:46;;;;;;;7.88;6.55;;;;;;;29.15;29.75;95170.19;5040650;28;20236;-65
2022/07/23 09:42:15;;;;;;;7.63;6.32;;;;;;;29.19;28.72;95173.19;5055741;28;20232;-65
2022/07/23 09:44:46;;;;;;;7.90;6.22;;;;;;;29.34;28.25;95169.72;5072621;28;20232;-66
2022/07/23 09:47:12;;;;;;;9.38;7.13;;;;;;;29.47;28.22;95163.81;5071758;28;20288;-65
2022/07/23 09:49:37;;;;;;;9.02;6.28;;;;;;;29.75;27.13;95162.56;5037971;28;20228;-64
2022/07/23 09:52:03;;;;;;;8.10;6.65;;;;;;;29.95;27.21;95160.94;5040598;28;20286;-65
2022/07/23 09:54:40;;;;;;;8.85;6.88;;;;;;;30.11;26.52;95163.38;5040931;28;20729;-65
2022/07/23 09:57:11;;;;;;;7.78;6.28;;;;;;;30.38;25.70;95162.31;5039512;28;20213;-66
2022/07/23 09:59:38;;;;;;;6.75;6.05;;;;;;;30.49;25.55;95163.09;5028717;28;20214;-66
2022/07/23 10:02:06;;;;;;;7.40;6.60;;;;;;;30.62;25.75;95157.13;5040152;28;20220;-65
2022/07/23 10:04:32;;;;;;;6.43;5.80;;;;;;;30.69;24.97;95156.84;5058699;28;20201;-65
2022/07/23 10:07:03;;;;;;;8.35;5.85;;;;;;;30.73;24.43;95141.63;5060274;28;20217;-66
2022/07/23 10:09:36;;;;;;;6.15;5.43;;;;;;;30.73;23.55;95147.03;5060459;28;20286;-66
2022/07/23 10:14:42;;;;;;;6.43;5.80;;;;;;;30.82;22.80;95142.72;5058756;28;20230;-66
2022/07/23 10:17:08;;;;;;;9.65;6.43;;;;;;;30.96;24.17;95141.03;5057776;28;20436;-65
2022/07/23 10:19:34;;;;;;;8.73;6.20;;;;;;;31.09;23.64;95136.91;5059402;28;20193;-65
2022/07/23 10:22:36;;;;;;;8.40;6.55;;;;;;;31.30;23.59;95137.63;5059230;28;20229;-65
2022/07/23 10:25:14;;;;;;;8.95;6.35;;;;;;;31.45;21.40;95138.66;5058557;28;20314;-67
2022/07/23 10:28:04;;;;;;;11.20;6.20;;;;;;;31.38;21.63;95137.06;5062877;28;20264;-66
2022/07/23 10:30:43;;;;;;;7.00;5.80;;;;;;;31.40;22.56;95126.72;5049505;28;20232;-65
2022/07/23 10:33:23;;;;;;;13.07;5.95;;;;;;;31.66;20.84;95123.84;5039197;28;20280;-66
2022/07/23 10:35:58;;;;;;;10.98;6.15;;;;;;;31.90;21.21;95126.66;5036420;28;20232;-66
2022/07/23 10:38:29;;;;;;;7.53;5.70;;;;;;;32.06;21.02;95122.75;5036068;28;20233;-64
2022/07/23 10:40:55;;;;;;;9.75;6.47;;;;;;;32.22;20.91;95128.06;5057402;28;20219;-66
2022/07/23 10:43:21;;;;;;;7.40;6.22;;;;;;;32.22;19.34;95115.28;5057970;28;20234;-66
2022/07/23 10:45:46;;;;;;;8.02;5.03;;;;;;;32.28;19.15;95118.75;5029190;28;20233;-63
2022/07/23 10:48:25;;;;;;;6.47;5.28;;;;;;;32.38;19.08;95115.13;5030294;28;20713;-65
2022/07/23 10:51:14;;;;;;;9.45;5.90;;;;;;;32.57;18.73;95109.81;5056431;28;20265;-64
2022/07/23 10:53:51;;;;;;;6.38;5.20;;;;;;;32.76;19.27;95107.94;5030666;28;20233;-64
2022/07/23 10:56:49;;;;;;;11.27;5.68;;;;;;;32.79;18.20;95110.09;5055678;28;20417;-65
2022/07/23 10:59:14;;;;;;;7.72;5.15;;;;;;;32.86;16.87;95096.13;5027126;28;20220;-65
2022/07/23 11:01:40;;;;;;;9.00;5.65;;;;;;;32.97;16.07;95094.09;5043718;28;20213;-66
2022/07/23 11:04:07;;;;;;;13.57;5.20;;;;;;;33.00;16.68;95094.31;5029727;28;20286;-65
2022/07/23 11:07:06;;;;;;;9.43;5.20;;;;;;;33.10;16.12;95090.69;5046882;28;20222;-65
2022/07/23 11:09:39;;;;;;;11.18;5.90;;;;;;;33.12;16.07;95080.28;5042593;28;20542;-65
2022/07/23 11:12:13;;;;;;;10.18;5.28;;;;;;;33.33;15.35;95083.56;5043055;28;20364;-64
2022/07/23 11:15:10;;;;;;;12.05;5.60;;;;;;;33.46;16.71;95082.03;5026775;28;20220;-65
2022/07/23 11:17:51;;;;;;;10.38;6.32;;;;;;;33.48;16.93;95083.34;5025327;28;20531;-65
2022/07/23 11:20:22;;;;;;;10.70;5.78;;;;;;;33.55;15.82;95075.66;5044346;28;20307;-65
2022/07/23 11:22:51;;;;;;;11.20;5.55;;;;;;;33.84;15.15;95071.91;5028736;28;20216;-65
2022/07/23 11:25:22;;;;;;;8.57;5.47;;;;;;;34.10;14.35;95072.31;5026024;28;20251;-65
2022/07/23 11:27:49;;;;;;;9.00;4.97;;;;;;;34.20;13.50;95074.06;5016370;28;20578;-65
2022/07/23 11:30:26;;;;;;;9.95;5.43;;;;;;;34.17;14.42;95066.50;5006334;28;20326;-65
2022/07/23 11:32:53;;;;;;;10.32;4.90;;;;;;;34.21;15.04;95067.50;5006853;28;20225;-65
2022/07/23 11:35:21;;;;;;;10.35;5.35;;;;;;;34.24;14.49;95067.72;5001486;28;20301;-65